Time;durP1;ratioP1;P1;durP2;ratioP2;P2;SDS_P1;SDS_P2;PMS_P1;PMS_P2;Temp;Humidity;BMP_temperature;BMP_pressure;BME280_temperature;BME280_humidity;BME280_pressure;Samples;Min_cycle;Max_cycle;Signal;HPM_P1;HPM_P2
2023/09/26 00:00:21;;;;;;;11.73;10.83;;;15.70;1.00;;;;;;5112619;27;20467;-86
2023/09/26 00:02:51;;;;;;;11.83;10.83;;;15.70;1.00;;;;;;5113234;27;20473;-84
2023/09/26 00:05:20;;;;;;;12.27;11.23;;;15.70;1.00;;;;;;5111940;27;20442;-86
2023/09/26 00:07:49;;;;;;;12.17;11.17;;;15.70;1.00;;;;;;5109913;27;20547;-85
2023/09/26 00:10:20;;;;;;;11.43;10.63;;;15.70;1.00;;;;;;5116787;28;20458;-87
2023/09/26 00:12:47;;;;;;;10.83;10.03;;;15.60;1.00;;;;;;5116667;27;21093;-87
2023/09/26 00:15:15;;;;;;;12.60;11.60;;;15.70;1.00;;;;;;5109250;27;20458;-87
2023/09/26 00:17:42;;;;;;;12.37;11.20;;;15.70;1.00;;;;;;5116368;27;20485;-85
2023/09/26 00:20:27;;;;;;;11.90;11.00;;;15.70;1.00;;;;;;5114319;27;20454;-85
2023/09/26 00:22:57;;;;;;;12.30;11.30;;;15.60;1.00;;;;;;5102055;27;21341;-89
2023/09/26 00:25:25;;;;;;;11.60;10.60;;;15.60;1.00;;;;;;5112568;27;20457;-85
2023/09/26 00:27:52;;;;;;;11.50;10.43;;;15.60;1.00;;;;;;5111997;27;20900;-88
2023/09/26 00:30:21;;;;;;;12.77;11.73;;;15.60;1.00;;;;;;5113850;27;20454;-87
2023/09/26 00:32:58;;;;;;;11.93;11.03;;;15.70;1.00;;;;;;5102579;27;20454;-86
2023/09/26 00:35:27;;;;;;;13.17;12.17;;;15.70;1.00;;;;;;5113248;27;21243;-86
2023/09/26 00:37:54;;;;;;;12.33;11.27;;;15.70;1.00;;;;;;5117483;27;20468;-86
2023/09/26 00:40:22;;;;;;;11.97;11.03;;;15.70;1.00;;;;;;5112281;27;20585;-88
2023/09/26 00:42:49;;;;;;;13.33;12.20;;;15.60;1.00;;;;;;5114755;27;20480;-85
2023/09/26 00:45:18;;;;;;;12.80;11.80;;;15.50;1.00;;;;;;5112076;27;20473;-87
2023/09/26 00:47:45;;;;;;;12.80;11.70;;;15.50;1.00;;;;;;5113229;27;20430;-86
2023/09/26 00:50:13;;;;;;;12.90;11.80;;;15.50;1.00;;;;;;5115748;28;20464;-87
2023/09/26 00:52:44;;;;;;;14.13;12.53;;;15.50;1.00;;;;;;5112551;28;20526;-86
2023/09/26 00:55:14;;;;;;;12.70;11.70;;;15.40;1.00;;;;;;5111929;27;20470;-87
2023/09/26 00:57:41;;;;;;;12.70;11.70;;;15.40;1.00;;;;;;5111886;28;20457;-86
2023/09/26 01:00:12;;;;;;;12.60;11.60;;;15.50;1.00;;;;;;5114369;27;20596;-83
2023/09/26 01:02:41;;;;;;;13.37;12.37;;;15.50;1.00;;;;;;5110561;27;20469;-85
2023/09/26 01:05:09;;;;;;;13.20;12.10;;;15.40;1.00;;;;;;5112839;27;20468;-84
2023/09/26 01:07:37;;;;;;;11.67;10.70;;;15.40;1.00;;;;;;5110837;27;20470;-87
2023/09/26 01:10:07;;;;;;;14.33;13.20;;;15.40;1.00;;;;;;5114078;27;20461;-85
2023/09/26 01:12:35;;;;;;;13.23;12.13;;;15.50;1.00;;;;;;5094173;28;20480;-87
2023/09/26 01:15:03;;;;;;;14.20;13.20;;;15.50;1.00;;;;;;5113900;28;20483;-83
2023/09/26 01:17:32;;;;;;;13.90;12.80;;;15.60;1.00;;;;;;5112241;27;20504;-83
2023/09/26 01:19:59;;;;;;;14.20;12.97;;;15.50;1.00;;;;;;5108929;27;20548;-87
2023/09/26 01:22:28;;;;;;;13.67;12.57;;;15.50;1.00;;;;;;5111929;27;20474;-87
2023/09/26 01:24:57;;;;;;;15.00;13.70;;;15.50;1.00;;;;;;5111598;27;21316;-87
2023/09/26 01:27:24;;;;;;;13.77;12.47;;;15.40;1.00;;;;;;5116920;27;20612;-87
2023/09/26 01:29:52;;;;;;;14.13;12.93;;;15.40;1.00;;;;;;5112964;27;20413;-85
2023/09/26 01:32:19;;;;;;;13.37;12.37;;;15.40;1.00;;;;;;5110574;27;20473;-82
2023/09/26 01:34:46;;;;;;;13.10;12.03;;;15.50;1.00;;;;;;5112961;28;20468;-86
2023/09/26 01:37:14;;;;;;;14.23;13.00;;;15.50;1.00;;;;;;5111087;27;20514;-86
2023/09/26 01:39:42;;;;;;;14.10;12.93;;;15.50;1.00;;;;;;5112304;27;20457;-86
2023/09/26 01:42:10;;;;;;;14.10;12.90;;;15.40;1.00;;;;;;5112345;27;20474;-84
2023/09/26 01:44:37;;;;;;;14.90;13.70;;;15.40;1.00;;;;;;5115388;27;20543;-87
2023/09/26 01:47:04;;;;;;;14.00;12.87;;;15.30;1.00;;;;;;5109199;28;20504;-84
2023/09/26 01:49:31;;;;;;;14.67;13.47;;;15.40;1.00;;;;;;5110886;27;20460;-83
2023/09/26 01:51:58;;;;;;;14.00;12.90;;;15.40;1.00;;;;;;5111938;27;21618;-82
2023/09/26 01:54:26;;;;;;;14.40;13.20;;;15.30;1.00;;;;;;5109364;27;20552;-83
2023/09/26 01:56:53;;;;;;;14.93;13.73;;;15.30;1.00;;;;;;5110626;27;20472;-83
2023/09/26 01:59:22;;;;;;;15.50;14.20;;;15.20;1.00;;;;;;5112769;27;20466;-83
2023/09/26 02:01:49;;;;;;;15.90;14.50;;;15.20;1.00;;;;;;5104214;27;20496;-81
2023/09/26 02:04:16;;;;;;;16.10;14.60;;;15.10;1.00;;;;;;5111184;27;20476;-82
2023/09/26 02:06:43;;;;;;;16.10;14.70;;;15.10;1.00;;;;;;5109157;28;20461;-82
2023/09/26 02:09:09;;;;;;;15.97;14.60;;;15.10;1.00;;;;;;5110910;27;20536;-82
2023/09/26 02:11:36;;;;;;;16.87;15.40;;;15.10;1.00;;;;;;5107888;28;20516;-81
2023/09/26 02:14:05;;;;;;;17.97;16.17;;;15.00;1.00;;;;;;5110362;27;20449;-82
2023/09/26 02:16:33;;;;;;;16.57;15.07;;;14.80;1.00;;;;;;5108674;27;20507;-82
2023/09/26 02:19:01;;;;;;;16.33;14.77;;;14.90;1.00;;;;;;5111219;27;20972;-82
2023/09/26 02:21:29;;;;;;;16.67;15.13;;;14.80;1.00;;;;;;5110892;28;21200;-83
2023/09/26 02:23:56;;;;;;;16.00;14.60;;;14.80;1.00;;;;;;5108161;27;20543;-83
2023/09/26 02:26:23;;;;;;;16.90;15.40;;;14.80;1.00;;;;;;5110505;27;20472;-83
2023/09/26 02:28:50;;;;;;;18.13;16.50;;;14.80;1.00;;;;;;5108609;27;20476;-84
2023/09/26 02:31:17;;;;;;;17.00;15.40;;;14.80;1.00;;;;;;5108321;27;20491;-83
2023/09/26 02:33:46;;;;;;;16.70;15.23;;;14.80;1.00;;;;;;5110888;27;20463;-82
2023/09/26 02:36:13;;;;;;;17.13;15.40;;;14.70;1.00;;;;;;5110743;27;20433;-83
2023/09/26 02:38:40;;;;;;;17.20;15.70;;;14.70;1.00;;;;;;5111696;27;20424;-82
2023/09/26 02:41:07;;;;;;;18.30;16.50;;;14.80;1.00;;;;;;5108923;28;20496;-83
2023/09/26 02:43:34;;;;;;;17.43;15.93;;;14.80;1.00;;;;;;5113484;27;21008;-83
2023/09/26 02:46:01;;;;;;;17.10;15.67;;;14.80;1.00;;;;;;5105250;27;20441;-83
2023/09/26 02:48:28;;;;;;;17.70;16.10;;;14.80;1.00;;;;;;5107771;28;20856;-84
2023/09/26 02:51:04;;;;;;;16.43;15.10;;;14.70;1.00;;;;;;5110638;27;20632;-82
2023/09/26 02:53:31;;;;;;;18.40;16.87;;;14.70;1.00;;;;;;5108513;27;20462;-83
2023/09/26 02:55:58;;;;;;;18.27;16.50;;;14.60;1.00;;;;;;5111139;27;20465;-83
2023/09/26 02:58:25;;;;;;;17.80;16.30;;;14.60;1.00;;;;;;5103529;27;20449;-83
2023/09/26 03:00:52;;;;;;;18.23;16.60;;;14.60;1.00;;;;;;5111792;27;20483;-84
2023/09/26 03:03:22;;;;;;;17.17;15.77;;;14.60;1.00;;;;;;5109709;28;20475;-84
2023/09/26 03:05:53;;;;;;;17.53;16.00;;;14.70;1.00;;;;;;5112876;27;20449;-83
2023/09/26 03:08:21;;;;;;;16.87;15.30;;;14.70;1.00;;;;;;5112390;28;20428;-84
2023/09/26 03:10:48;;;;;;;18.60;17.00;;;14.70;1.00;;;;;;5109390;27;20902;-82
2023/09/26 03:13:15;;;;;;;18.43;16.80;;;14.60;1.00;;;;;;5111329;28;20460;-82
2023/09/26 03:15:42;;;;;;;19.33;17.53;;;14.60;1.00;;;;;;5110968;28;20998;-83
2023/09/26 03:18:09;;;;;;;19.30;17.63;;;14.50;1.00;;;;;;5110439;27;20464;-84
2023/09/26 03:20:39;;;;;;;19.13;17.33;;;14.40;1.00;;;;;;5111039;27;20480;-83
2023/09/26 03:23:06;;;;;;;19.87;18.07;;;14.40;1.00;;;;;;5111560;27;20450;-83
2023/09/26 03:25:34;;;;;;;19.20;17.53;;;14.40;1.00;;;;;;5111903;27;20428;-83
2023/09/26 03:28:02;;;;;;;19.40;17.73;;;14.30;1.00;;;;;;5110133;27;20536;-80
2023/09/26 03:30:30;;;;;;;19.37;17.47;;;14.30;1.00;;;;;;5114343;28;20481;-84
2023/09/26 03:32:57;;;;;;;17.87;16.20;;;14.30;1.00;;;;;;5110655;27;20451;-84
2023/09/26 03:35:24;;;;;;;19.17;17.27;;;14.30;1.00;;;;;;5113300;27;20456;-83
2023/09/26 03:37:51;;;;;;;18.43;16.83;;;14.20;1.00;;;;;;5112445;27;20464;-84
2023/09/26 03:40:18;;;;;;;20.27;18.30;;;14.20;1.00;;;;;;5113209;27;21633;-83
2023/09/26 03:42:47;;;;;;;18.40;16.80;;;14.20;1.00;;;;;;5111708;28;20468;-84
2023/09/26 03:45:16;;;;;;;22.10;20.30;;;14.20;1.00;;;;;;5114750;27;20584;-83
2023/09/26 03:47:43;;;;;;;20.70;18.80;;;14.10;1.00;;;;;;5110961;27;20468;-82
2023/09/26 03:50:10;;;;;;;22.13;20.13;;;14.10;1.00;;;;;;5115107;27;20551;-82
2023/09/26 03:52:37;;;;;;;20.17;18.27;;;14.10;1.00;;;;;;5116158;28;20490;-82
2023/09/26 03:55:05;;;;;;;20.87;18.87;;;14.00;1.00;;;;;;5113492;28;20465;-84
2023/09/26 03:57:32;;;;;;;20.07;18.13;;;14.00;1.00;;;;;;5112787;27;20429;-83
2023/09/26 04:00:01;;;;;;;20.87;18.87;;;13.90;1.00;;;;;;5113203;27;20550;-82
2023/09/26 04:02:38;;;;;;;20.87;19.10;;;13.90;1.00;;;;;;5111407;27;20460;-82
2023/09/26 04:05:06;;;;;;;21.37;19.13;;;13.90;1.00;;;;;;5108711;27;20482;-81
2023/09/26 04:07:33;;;;;;;21.20;19.30;;;13.80;1.00;;;;;;5112047;27;20476;-83
2023/09/26 04:10:00;;;;;;;23.33;20.93;;;13.90;1.00;;;;;;5112531;28;20569;-84
2023/09/26 04:12:27;;;;;;;20.00;18.10;;;13.80;1.00;;;;;;5106938;28;20456;-84
2023/09/26 04:14:58;;;;;;;19.73;17.83;;;13.90;1.00;;;;;;5113575;27;20921;-83
2023/09/26 04:17:26;;;;;;;21.00;19.10;;;13.90;1.00;;;;;;5114511;27;21249;-83
2023/09/26 04:19:57;;;;;;;21.20;19.03;;;13.90;1.00;;;;;;5116955;27;20464;-84
2023/09/26 04:22:24;;;;;;;23.00;20.83;;;13.90;1.00;;;;;;5116088;27;21082;-85
2023/09/26 04:24:51;;;;;;;20.30;18.50;;;13.80;1.00;;;;;;5113140;27;20602;-84
2023/09/26 04:27:20;;;;;;;23.10;20.90;;;13.90;1.00;;;;;;5111928;27;20408;-85
2023/09/26 04:29:47;;;;;;;21.57;19.67;;;13.80;1.00;;;;;;5111659;27;20534;-84
2023/09/26 04:32:14;;;;;;;21.77;19.80;;;13.80;1.00;;;;;;5114872;28;21272;-86
2023/09/26 04:34:46;;;;;;;20.27;18.47;;;13.80;1.00;;;;;;5113395;27;20521;-83
2023/09/26 04:37:13;;;;;;;23.33;21.10;;;13.80;1.00;;;;;;5109635;28;20461;-84
2023/09/26 04:39:41;;;;;;;23.07;20.97;;;13.80;1.00;;;;;;5118124;27;20451;-83
2023/09/26 04:42:09;;;;;;;23.10;20.90;;;13.80;1.00;;;;;;5110642;28;20499;-81
2023/09/26 04:44:37;;;;;;;23.23;20.90;;;13.80;1.00;;;;;;5114452;27;20553;-82
2023/09/26 04:47:06;;;;;;;24.33;20.97;;;13.80;1.00;;;;;;5115122;27;20419;-84
2023/09/26 04:49:34;;;;;;;21.83;19.83;;;13.70;1.00;;;;;;5119392;27;20444;-82
2023/09/26 04:52:02;;;;;;;21.40;19.40;;;13.70;1.00;;;;;;5115889;27;20449;-81
2023/09/26 04:54:32;;;;;;;24.00;21.40;;;13.80;1.00;;;;;;5115511;28;20434;-82
2023/09/26 04:56:59;;;;;;;22.43;20.13;;;13.70;1.00;;;;;;5116057;27;20500;-82
2023/09/26 04:59:28;;;;;;;24.87;22.57;;;13.80;1.00;;;;;;5116665;27;20479;-81
2023/09/26 05:04:41;;;;;;;22.00;20.03;;;13.80;1.00;;;;;;5112593;27;21038;-85
2023/09/26 05:07:13;;;;;;;22.03;20.03;;;13.90;1.00;;;;;;5113196;27;20451;-82
2023/09/26 05:09:41;;;;;;;23.43;21.27;;;13.90;1.00;;;;;;5114992;27;20567;-82
2023/09/26 05:12:08;;;;;;;23.47;21.27;;;13.90;1.00;;;;;;5111913;27;20449;-81
2023/09/26 05:14:37;;;;;;;24.00;21.40;;;13.90;1.00;;;;;;5111100;27;20802;-85
2023/09/26 05:17:04;;;;;;;24.20;22.00;;;13.90;1.00;;;;;;5110980;27;20543;-82
2023/09/26 05:19:31;;;;;;;23.93;21.73;;;13.80;1.00;;;;;;5112768;27;20474;-82
2023/09/26 05:21:58;;;;;;;26.17;23.47;;;13.90;1.00;;;;;;5108648;27;22105;-82
2023/09/26 05:24:27;;;;;;;22.80;20.70;;;13.90;1.00;;;;;;5114706;27;20538;-82
2023/09/26 05:26:58;;;;;;;22.13;20.10;;;13.90;1.00;;;;;;5107107;27;20464;-82
2023/09/26 05:29:29;;;;;;;21.47;19.57;;;13.90;1.00;;;;;;5110415;27;20440;-82
2023/09/26 05:32:02;;;;;;;23.63;21.33;;;13.90;1.00;;;;;;5118668;27;20421;-86
2023/09/26 05:34:30;;;;;;;21.53;19.67;;;14.00;1.00;;;;;;5121414;27;20434;-87
2023/09/26 05:37:00;;;;;;;24.50;22.07;;;14.00;1.00;;;;;;5119050;27;20430;-87
2023/09/26 05:39:29;;;;;;;24.10;21.80;;;14.10;1.00;;;;;;5114558;27;21291;-82
2023/09/26 05:41:59;;;;;;;23.27;21.27;;;14.20;1.00;;;;;;5113882;27;20473;-84
2023/09/26 05:44:26;;;;;;;26.40;23.70;;;14.20;1.00;;;;;;5118481;27;20492;-82
2023/09/26 05:46:53;;;;;;;52.03;47.03;;;14.10;1.00;;;;;;5114631;27;20417;-83
2023/09/26 05:49:22;;;;;;;25.10;22.63;;;14.10;1.00;;;;;;5112032;27;20526;-82
2023/09/26 05:51:49;;;;;;;23.87;21.30;;;14.20;1.00;;;;;;5120036;27;21121;-87
2023/09/26 05:54:16;;;;;;;24.13;21.97;;;14.20;1.00;;;;;;5111616;27;20491;-84
2023/09/26 05:56:46;;;;;;;25.27;22.67;;;14.20;1.00;;;;;;5115829;27;20580;-81
2023/09/26 05:59:13;;;;;;;37.50;33.73;;;14.20;1.00;;;;;;5118496;27;20497;-86
2023/09/26 06:02:00;;;;;;;25.77;22.93;;;14.30;1.00;;;;;;5115775;27;20459;-85
2023/09/26 06:04:27;;;;;;;24.43;22.07;;;14.40;1.00;;;;;;5110061;27;20461;-85
2023/09/26 06:06:54;;;;;;;23.77;21.57;;;14.50;1.00;;;;;;5115628;27;20485;-89
2023/09/26 06:09:21;;;;;;;24.87;22.43;;;14.50;1.00;;;;;;5115071;27;20477;-87
2023/09/26 06:11:51;;;;;;;27.17;24.50;;;14.60;1.00;;;;;;5111822;27;20535;-85
2023/09/26 06:14:18;;;;;;;25.20;22.90;;;14.70;1.00;;;;;;5111273;27;20428;-87
2023/09/26 06:16:45;;;;;;;23.20;20.93;;;14.70;1.00;;;;;;5118515;27;20828;-87
2023/09/26 06:19:15;;;;;;;26.10;23.70;;;14.70;1.00;;;;;;5112423;27;20567;-79
2023/09/26 06:21:43;;;;;;;23.27;21.20;;;14.70;1.00;;;;;;5114309;27;20429;-81
2023/09/26 06:24:10;;;;;;;28.53;25.43;;;14.80;1.00;;;;;;5111864;27;21450;-83
2023/09/26 06:26:40;;;;;;;25.00;22.40;;;14.80;1.00;;;;;;5107644;27;20452;-82
2023/09/26 06:29:09;;;;;;;23.83;21.40;;;14.90;1.00;;;;;;5100808;27;20457;-81
2023/09/26 06:31:38;;;;;;;25.47;22.97;;;15.00;1.00;;;;;;5106272;27;20959;-82
2023/09/26 06:34:05;;;;;;;26.40;23.70;;;15.00;1.00;;;;;;5105612;27;20427;-82
2023/09/26 06:36:32;;;;;;;26.53;24.07;;;15.10;1.00;;;;;;5104832;27;20464;-82
2023/09/26 06:39:00;;;;;;;22.77;20.80;;;15.10;1.00;;;;;;5105438;27;22012;-83
2023/09/26 06:41:27;;;;;;;25.60;22.87;;;15.10;1.00;;;;;;5105748;27;20562;-82
2023/09/26 06:43:56;;;;;;;24.83;22.50;;;15.10;1.00;;;;;;5108100;27;20479;-81
2023/09/26 06:46:24;;;;;;;24.47;22.27;;;15.10;1.00;;;;;;5105470;27;20457;-81
2023/09/26 06:48:52;;;;;;;25.37;23.10;;;15.10;1.00;;;;;;5099779;27;20604;-80
2023/09/26 06:51:19;;;;;;;25.30;22.70;;;15.00;1.00;;;;;;5105131;27;20452;-82
2023/09/26 06:53:46;;;;;;;25.73;23.37;;;15.00;1.00;;;;;;5102743;27;20484;-80
2023/09/26 06:56:12;;;;;;;26.97;24.50;;;15.10;1.00;;;;;;5101431;28;20453;-80
2023/09/26 06:58:40;;;;;;;24.83;22.57;;;15.20;1.00;;;;;;5106047;27;20958;-80
2023/09/26 07:01:14;;;;;;;24.17;21.67;;;15.30;1.00;;;;;;5110141;27;20486;-80
2023/09/26 07:03:42;;;;;;;26.00;23.47;;;15.40;1.00;;;;;;5110121;28;20464;-81
2023/09/26 07:06:10;;;;;;;25.93;23.33;;;15.60;1.00;;;;;;5108228;27;20507;-81
2023/09/26 07:08:39;;;;;;;25.10;22.63;;;15.70;1.00;;;;;;5107713;27;20528;-80
2023/09/26 07:11:07;;;;;;;24.10;21.90;;;15.80;1.00;;;;;;5107813;27;20477;-81
2023/09/26 07:13:35;;;;;;;24.80;22.57;;;15.90;1.00;;;;;;5107613;28;21344;-80
2023/09/26 07:16:04;;;;;;;21.93;20.03;;;16.20;1.00;;;;;;5108468;28;20453;-79
2023/09/26 07:18:32;;;;;;;24.27;21.87;;;16.30;1.00;;;;;;5108602;27;20478;-80
2023/09/26 07:21:04;;;;;;;28.30;25.90;;;16.30;1.00;;;;;;5105031;28;20468;-80
2023/09/26 07:23:33;;;;;;;23.27;21.00;;;16.30;1.00;;;;;;5110238;27;21222;-80
2023/09/26 07:26:12;;;;;;;20.80;18.93;;;16.30;1.00;;;;;;5110520;27;20423;-79
2023/09/26 07:28:39;;;;;;;21.63;19.83;;;16.40;1.00;;;;;;5109206;27;20508;-81
2023/09/26 07:31:08;;;;;;;22.03;20.07;;;16.50;1.00;;;;;;5111207;27;20473;-80
2023/09/26 07:33:36;;;;;;;22.53;20.53;;;16.50;1.00;;;;;;5108660;28;20470;-80
2023/09/26 07:36:05;;;;;;;21.37;19.47;;;16.60;1.00;;;;;;5111067;28;21321;-80
2023/09/26 07:38:32;;;;;;;23.90;21.80;;;16.70;1.00;;;;;;5112395;27;20477;-81
2023/09/26 07:41:00;;;;;;;22.07;20.17;;;16.70;1.00;;;;;;5109349;27;20483;-80
2023/09/26 07:43:29;;;;;;;21.20;19.13;;;16.80;1.00;;;;;;5109548;27;20469;-79
2023/09/26 07:45:58;;;;;;;21.90;19.80;;;16.90;1.00;;;;;;5107903;27;20504;-79
2023/09/26 07:48:28;;;;;;;22.17;20.17;;;17.00;1.00;;;;;;5091986;28;20462;-78
2023/09/26 07:50:57;;;;;;;24.40;22.20;;;17.10;1.00;;;;;;5109684;28;20465;-79
2023/09/26 07:53:26;;;;;;;22.60;20.53;;;17.10;1.00;;;;;;5112599;27;20893;-80
2023/09/26 07:55:56;;;;;;;23.23;20.97;;;17.20;1.00;;;;;;5110281;28;20430;-81
2023/09/26 07:58:23;;;;;;;23.37;21.27;;;17.30;1.00;;;;;;5114744;28;20575;-81
2023/09/26 08:00:50;;;;;;;23.43;21.23;;;17.40;1.00;;;;;;5112089;28;20938;-81
2023/09/26 08:03:17;;;;;;;23.73;21.47;;;17.50;1.00;;;;;;5110981;27;20874;-79
2023/09/26 08:05:44;;;;;;;22.13;20.00;;;17.60;1.00;;;;;;5108185;27;21214;-78
2023/09/26 08:08:11;;;;;;;23.00;20.90;;;17.70;1.00;;;;;;5108253;28;20854;-79
2023/09/26 08:10:41;;;;;;;21.70;19.90;;;17.70;1.00;;;;;;5111847;27;20458;-79
2023/09/26 08:13:08;;;;;;;22.10;20.00;;;17.70;1.00;;;;;;5112482;27;20513;-79
2023/09/26 08:15:36;;;;;;;24.87;22.67;;;17.80;1.00;;;;;;5111354;27;20509;-79
2023/09/26 08:18:04;;;;;;;21.40;19.20;;;17.80;1.00;;;;;;5107813;28;20558;-79
2023/09/26 08:20:31;;;;;;;23.13;21.07;;;18.00;1.00;;;;;;5106303;27;21022;-79
2023/09/26 08:22:58;;;;;;;22.40;20.10;;;18.10;1.00;;;;;;5108946;27;20457;-77
2023/09/26 08:25:25;;;;;;;20.70;18.90;;;18.20;1.00;;;;;;5107745;27;20664;-78
2023/09/26 08:27:57;;;;;;;21.87;19.63;;;18.20;1.00;;;;;;5108968;28;22943;-78
2023/09/26 08:30:24;;;;;;;20.30;18.50;;;18.30;1.00;;;;;;5087880;28;20524;-80
2023/09/26 08:32:50;;;;;;;22.03;20.03;;;18.40;1.00;;;;;;5113690;28;20534;-80
2023/09/26 08:35:18;;;;;;;19.63;17.73;;;18.40;1.00;;;;;;5108302;28;20527;-82
2023/09/26 08:37:51;;;;;;;20.57;18.73;;;18.50;1.00;;;;;;5107856;27;20537;-82
2023/09/26 08:40:24;;;;;;;20.93;19.03;;;18.60;1.00;;;;;;5109952;28;20450;-78
2023/09/26 08:42:57;;;;;;;21.07;19.20;;;18.70;1.00;;;;;;5098898;27;20995;-81
2023/09/26 08:45:25;;;;;;;22.23;20.10;;;18.80;1.00;;;;;;5110238;27;20452;-80
2023/09/26 08:47:54;;;;;;;22.30;20.00;;;18.90;1.00;;;;;;5106843;27;20478;-79
2023/09/26 08:50:22;;;;;;;22.03;20.13;;;19.10;1.00;;;;;;5108519;28;20521;-79
2023/09/26 08:52:49;;;;;;;19.63;18.03;;;19.30;1.00;;;;;;5109139;28;20455;-79
2023/09/26 08:55:20;;;;;;;20.70;19.00;;;19.50;1.00;;;;;;5112318;28;20909;-79
2023/09/26 08:57:50;;;;;;;18.70;17.30;;;19.70;1.00;;;;;;5112131;27;20990;-78
2023/09/26 09:00:20;;;;;;;20.37;18.47;;;19.80;1.00;;;;;;5107845;28;20457;-79
2023/09/26 09:02:48;;;;;;;19.60;18.03;;;20.20;1.00;;;;;;5106945;27;20490;-80
2023/09/26 09:05:19;;;;;;;17.93;16.30;;;20.90;1.00;;;;;;5106512;27;20509;-78
2023/09/26 09:07:46;;;;;;;17.70;16.10;;;22.30;1.00;;;;;;5109801;27;20479;-77
2023/09/26 09:10:16;;;;;;;17.47;15.97;;;24.00;1.00;;;;;;5111088;27;20530;-80
2023/09/26 09:12:47;;;;;;;15.80;14.50;;;25.30;1.00;;;;;;5106792;28;20552;-79
2023/09/26 09:15:26;;;;;;;17.60;16.03;;;25.80;1.00;;;;;;5111121;27;20517;-79
2023/09/26 09:17:54;;;;;;;15.63;14.33;;;26.70;1.00;;;;;;5106972;28;20489;-79
2023/09/26 09:20:33;;;;;;;16.07;14.57;;;27.40;1.00;;;;;;5108576;27;20549;-78
2023/09/26 09:23:02;;;;;;;15.50;14.30;;;27.90;1.00;;;;;;5109638;27;20462;-78
2023/09/26 09:25:33;;;;;;;14.70;13.60;;;28.60;1.00;;;;;;5107263;27;20456;-79
2023/09/26 09:28:04;;;;;;;15.47;14.07;;;28.80;1.00;;;;;;5110141;27;21917;-78
2023/09/26 09:30:45;;;;;;;15.03;13.50;;;29.10;1.00;;;;;;5112472;28;20514;-79
2023/09/26 09:33:14;;;;;;;14.50;13.50;;;29.60;1.00;;;;;;5113000;27;20474;-81
2023/09/26 09:35:41;;;;;;;12.73;11.50;;;29.90;1.00;;;;;;5111127;27;20838;-79
2023/09/26 09:38:12;;;;;;;13.50;12.30;;;30.50;1.00;;;;;;5112623;27;20483;-79
2023/09/26 09:40:39;;;;;;;12.60;11.50;;;30.60;1.00;;;;;;5111590;27;20421;-79
2023/09/26 09:43:08;;;;;;;13.33;12.20;;;30.80;1.00;;;;;;5110269;28;20449;-78
2023/09/26 09:45:37;;;;;;;12.53;11.47;;;31.20;1.00;;;;;;5115295;27;20519;-80
2023/09/26 09:48:10;;;;;;;12.70;11.40;;;31.00;1.00;;;;;;5108427;27;20441;-79
2023/09/26 09:50:37;;;;;;;12.73;11.67;;;30.80;1.00;;;;;;5110257;28;20446;-79
2023/09/26 09:53:05;;;;;;;11.73;10.63;;;31.40;1.00;;;;;;5110804;27;20461;-79
2023/09/26 09:55:38;;;;;;;11.30;10.40;;;31.20;1.00;;;;;;5109643;27;20469;-80
2023/09/26 09:58:08;;;;;;;11.33;10.33;;;30.40;1.00;;;;;;5111802;27;20440;-79
2023/09/26 10:00:38;;;;;;;11.40;10.50;;;30.20;1.00;;;;;;5104386;27;20965;-79
2023/09/26 10:03:08;;;;;;;11.27;10.17;;;30.10;1.00;;;;;;5090254;28;20457;-79
2023/09/26 10:05:35;;;;;;;13.50;12.23;;;30.10;1.00;;;;;;5104728;27;22007;-80
2023/09/26 10:08:04;;;;;;;10.50;9.67;;;30.90;1.00;;;;;;5106303;27;20557;-79
2023/09/26 10:10:33;;;;;;;12.40;11.33;;;30.90;1.00;;;;;;5109727;27;20919;-79
2023/09/26 10:13:03;;;;;;;10.03;9.13;;;31.70;1.00;;;;;;5108831;27;20449;-79
2023/09/26 10:15:32;;;;;;;9.37;8.60;;;32.40;1.00;;;;;;5109961;27;20926;-79
2023/09/26 10:18:04;;;;;;;8.20;7.60;;;33.30;1.00;;;;;;5107266;27;20542;-79
2023/09/26 10:20:35;;;;;;;10.80;8.73;;;33.70;1.00;;;;;;5109848;28;20454;-79
2023/09/26 10:23:12;;;;;;;8.80;8.20;;;33.90;1.00;;;;;;5110034;27;20876;-79
2023/09/26 10:25:39;;;;;;;8.13;7.50;;;34.70;1.00;;;;;;5109764;27;20453;-78
2023/09/26 10:28:07;;;;;;;8.50;7.67;;;35.70;1.00;;;;;;5108330;28;20528;-79
2023/09/26 10:30:44;;;;;;;8.47;7.77;;;36.80;1.00;;;;;;5107744;27;20446;-80
2023/09/26 10:33:12;;;;;;;8.63;7.80;;;37.30;1.00;;;;;;5109533;28;20913;-80
2023/09/26 10:35:44;;;;;;;8.13;7.53;;;37.40;1.00;;;;;;5110877;27;20578;-79
2023/09/26 10:38:18;;;;;;;8.43;7.72;;;36.70;1.00;;;;;;5111608;28;20590;-79
2023/09/26 10:40:45;;;;;;;9.40;8.80;;;35.80;1.00;;;;;;5083769;28;20247;-79
2023/09/26 10:43:12;;;;;;;8.37;7.57;;;36.00;1.00;;;;;;5113993;27;20535;-80
2023/09/26 10:45:44;;;;;;;7.30;6.70;;;36.10;1.00;;;;;;5112945;28;20457;-79
2023/09/26 10:48:11;;;;;;;8.77;8.07;;;35.80;1.00;;;;;;5112251;28;20485;-80
2023/09/26 10:50:39;;;;;;;8.30;7.60;;;35.40;1.00;;;;;;5090522;28;20983;-80
2023/09/26 10:53:08;;;;;;;7.80;7.20;;;34.90;1.00;;;;;;5111063;27;20445;-80
2023/09/26 10:55:35;;;;;;;8.50;7.90;;;35.70;1.00;;;;;;5115164;27;20453;-80
2023/09/26 10:58:03;;;;;;;8.53;7.70;;;36.50;1.00;;;;;;5112964;28;20484;-79
2023/09/26 11:00:30;;;;;;;7.83;7.33;;;36.90;1.00;;;;;;5111504;28;20445;-80
2023/09/26 11:02:59;;;;;;;8.17;7.20;;;37.00;1.00;;;;;;5097915;27;20430;-81
2023/09/26 11:05:27;;;;;;;7.37;6.70;;;37.40;1.00;;;;;;5115577;28;20453;-80
2023/09/26 11:07:55;;;;;;;8.80;8.20;;;37.40;1.00;;;;;;5111669;28;20473;-79
2023/09/26 11:10:23;;;;;;;8.53;7.83;;;37.00;1.00;;;;;;5113340;27;20958;-81
2023/09/26 11:12:52;;;;;;;8.87;7.97;;;36.40;1.00;;;;;;5111261;27;20534;-80
2023/09/26 11:15:19;;;;;;;7.87;7.27;;;36.70;1.00;;;;;;5112461;27;20469;-80
2023/09/26 11:17:49;;;;;;;7.73;7.03;;;37.30;1.00;;;;;;5111342;27;20827;-79
2023/09/26 11:20:16;;;;;;;7.80;7.30;;;37.70;1.00;;;;;;5114844;27;20826;-79
2023/09/26 11:22:45;;;;;;;8.33;7.53;;;36.10;1.00;;;;;;5091810;28;20458;-79
2023/09/26 11:25:12;;;;;;;8.20;7.47;;;36.40;1.00;;;;;;5110688;27;20544;-79
2023/09/26 11:27:42;;;;;;;8.97;8.20;;;36.40;1.00;;;;;;5113056;27;20523;-80
2023/09/26 11:30:11;;;;;;;7.67;6.73;;;36.40;1.00;;;;;;5112443;27;20453;-79
2023/09/26 11:32:39;;;;;;;7.40;6.70;;;37.50;1.00;;;;;;5112032;27;20469;-80
2023/09/26 11:35:08;;;;;;;7.93;7.20;;;37.80;1.00;;;;;;5110777;28;22179;-80
2023/09/26 11:37:37;;;;;;;7.67;6.93;;;38.60;1.00;;;;;;5105792;27;20476;-82
2023/09/26 11:40:12;;;;;;;8.50;7.63;;;39.10;1.00;;;;;;5112706;27;20434;-81
2023/09/26 11:42:45;;;;;;;7.17;6.77;;;39.40;1.00;;;;;;5109240;27;20456;-79
2023/09/26 11:45:21;;;;;;;7.90;7.10;;;39.50;1.00;;;;;;5110855;28;20457;-79
2023/09/26 11:47:49;;;;;;;11.63;7.43;;;39.60;1.00;;;;;;5109208;27;20465;-83
2023/09/26 11:50:16;;;;;;;7.17;6.57;;;39.40;1.00;;;;;;5116900;27;20909;-80
2023/09/26 11:52:43;;;;;;;5.90;5.50;;;39.10;1.00;;;;;;5112911;27;20552;-80
2023/09/26 11:55:10;;;;;;;6.70;6.10;;;38.80;1.00;;;;;;5118316;28;20446;-79
2023/09/26 11:57:38;;;;;;;11.00;10.10;;;38.20;1.00;;;;;;5112222;28;20535;-79
2023/09/26 12:00:11;;;;;;;7.70;7.00;;;37.50;1.00;;;;;;5090702;28;20959;-78
2023/09/26 12:02:42;;;;;;;6.60;6.10;;;36.50;1.00;;;;;;5112564;28;20468;-79
2023/09/26 12:05:11;;;;;;;7.93;7.13;;;36.80;1.00;;;;;;5112011;28;20446;-79
2023/09/26 12:07:38;;;;;;;7.33;6.63;;;37.90;1.00;;;;;;5110969;27;21287;-79
2023/09/26 12:10:06;;;;;;;7.80;6.30;;;38.70;1.00;;;;;;5111995;27;20498;-82
2023/09/26 12:12:33;;;;;;;7.00;6.47;;;38.90;1.00;;;;;;5113799;27;20515;-78
2023/09/26 12:15:17;;;;;;;6.60;6.07;;;39.80;1.00;;;;;;5109274;27;20453;-79
2023/09/26 12:17:45;;;;;;;6.97;6.27;;;39.10;1.00;;;;;;5109039;28;20485;-81
2023/09/26 12:20:12;;;;;;;8.90;7.50;;;38.70;1.00;;;;;;5110568;27;20503;-78
2023/09/26 12:22:42;;;;;;;6.50;5.90;;;39.10;1.00;;;;;;5115681;27;20433;-78
2023/09/26 12:25:09;;;;;;;7.60;6.60;;;39.20;1.00;;;;;;5117928;28;20501;-79
2023/09/26 12:27:37;;;;;;;7.00;6.50;;;39.70;1.00;;;;;;5115153;28;20497;-82
2023/09/26 12:30:06;;;;;;;7.23;6.67;;;40.00;1.00;;;;;;5110545;27;20440;-80
2023/09/26 12:32:36;;;;;;;6.80;6.20;;;39.30;1.00;;;;;;5112055;28;20542;-78
2023/09/26 12:35:05;;;;;;;6.83;6.30;;;39.20;1.00;;;;;;5113687;28;20441;-79
2023/09/26 12:37:33;;;;;;;6.67;6.00;;;39.40;1.00;;;;;;5117886;28;20465;-81
2023/09/26 12:40:07;;;;;;;7.23;6.53;;;40.00;1.00;;;;;;5114104;27;20426;-81
2023/09/26 12:42:34;;;;;;;7.00;6.40;;;40.40;1.00;;;;;;5113422;28;20523;-79
2023/09/26 12:45:04;;;;;;;8.03;6.13;;;39.70;1.00;;;;;;5116292;28;20445;-80
2023/09/26 12:47:31;;;;;;;6.60;6.10;;;39.90;1.00;;;;;;5114914;27;20569;-80
2023/09/26 12:50:05;;;;;;;6.47;5.90;;;39.60;1.00;;;;;;5111765;27;21503;-77